sensor_id;sensor_type;location;lat;lon;timestamp;temperature;humidity
35593;DHT22;64447;52.140;5.602;2023-03-05T00:02:50;5.80;97.10
35593;DHT22;64447;52.140;5.602;2023-03-05T00:05:16;5.80;96.20
35593;DHT22;64447;52.140;5.602;2023-03-05T00:07:42;5.60;96.70
35593;DHT22;64447;52.140;5.602;2023-03-05T00:10:08;5.40;96.80
35593;DHT22;64447;52.140;5.602;2023-03-05T00:12:33;5.30;97.40
35593;DHT22;64447;52.140;5.602;2023-03-05T00:14:59;5.30;97.80
35593;DHT22;64447;52.140;5.602;2023-03-05T00:17:24;5.50;97.30
35593;DHT22;64447;52.140;5.602;2023-03-05T00:19:50;5.60;96.70
35593;DHT22;64447;52.140;5.602;2023-03-05T00:22:16;6.00;96.60
35593;DHT22;64447;52.140;5.602;2023-03-05T00:24:41;6.10;96.50
35593;DHT22;64447;52.140;5.602;2023-03-05T00:27:07;6.10;96.20
35593;DHT22;64447;52.140;5.602;2023-03-05T00:29:32;6.00;95.50
35593;DHT22;64447;52.140;5.602;2023-03-05T00:31:58;5.90;96.20
35593;DHT22;64447;52.140;5.602;2023-03-05T00:34:24;6.10;95.90
35593;DHT22;64447;52.140;5.602;2023-03-05T00:36:51;5.90;95.90
35593;DHT22;64447;52.140;5.602;2023-03-05T00:39:18;6.10;95.80
35593;DHT22;64447;52.140;5.602;2023-03-05T00:41:44;6.10;95.50
35593;DHT22;64447;52.140;5.602;2023-03-05T00:44:10;6.20;95.30
35593;DHT22;64447;52.140;5.602;2023-03-05T00:46:36;6.40;95.00
35593;DHT22;64447;52.140;5.602;2023-03-05T00:49:02;6.50;94.70
35593;DHT22;64447;52.140;5.602;2023-03-05T00:51:28;6.50;94.40
35593;DHT22;64447;52.140;5.602;2023-03-05T00:53:53;6.50;94.40
35593;DHT22;64447;52.140;5.602;2023-03-05T00:56:19;6.50;94.50
35593;DHT22;64447;52.140;5.602;2023-03-05T01:02:07;6.30;94.30
35593;DHT22;64447;52.140;5.602;2023-03-05T01:04:35;6.20;95.10
35593;DHT22;64447;52.140;5.602;2023-03-05T01:07:01;6.10;94.80
35593;DHT22;64447;52.140;5.602;2023-03-05T01:09:27;6.20;94.90
35593;DHT22;64447;52.140;5.602;2023-03-05T01:11:52;6.40;94.60
35593;DHT22;64447;52.140;5.602;2023-03-05T01:14:19;6.20;94.40
35593;DHT22;64447;52.140;5.602;2023-03-05T01:16:45;6.10;94.70
35593;DHT22;64447;52.140;5.602;2023-03-05T01:19:11;6.10;94.80
35593;DHT22;64447;52.140;5.602;2023-03-05T01:21:37;6.20;95.00
35593;DHT22;64447;52.140;5.602;2023-03-05T01:24:03;6.30;94.70
35593;DHT22;64447;52.140;5.602;2023-03-05T01:32:54;6.80;93.70
35593;DHT22;64447;52.140;5.602;2023-03-05T01:35:22;6.70;93.30
35593;DHT22;64447;52.140;5.602;2023-03-05T01:37:48;6.70;93.40
35593;DHT22;64447;52.140;5.602;2023-03-05T01:40:17;6.60;93.60
35593;DHT22;64447;52.140;5.602;2023-03-05T01:42:47;6.70;93.50
35593;DHT22;64447;52.140;5.602;2023-03-05T01:45:15;6.70;93.40
35593;DHT22;64447;52.140;5.602;2023-03-05T01:47:42;6.60;93.80
35593;DHT22;64447;52.140;5.602;2023-03-05T01:50:12;6.50;94.00
35593;DHT22;64447;52.140;5.602;2023-03-05T01:52:40;6.20;94.00
35593;DHT22;64447;52.140;5.602;2023-03-05T01:55:12;6.40;94.00
35593;DHT22;64447;52.140;5.602;2023-03-05T01:57:48;6.40;93.90
35593;DHT22;64447;52.140;5.602;2023-03-05T02:00:18;6.20;94.10
35593;DHT22;64447;52.140;5.602;2023-03-05T02:02:47;6.10;94.40
35593;DHT22;64447;52.140;5.602;2023-03-05T02:05:22;5.90;94.90
35593;DHT22;64447;52.140;5.602;2023-03-05T02:07:59;6.00;95.20
35593;DHT22;64447;52.140;5.602;2023-03-05T02:10:28;6.10;94.90
35593;DHT22;64447;52.140;5.602;2023-03-05T02:12:58;6.00;95.00
35593;DHT22;64447;52.140;5.602;2023-03-05T02:15:24;6.00;95.10
35593;DHT22;64447;52.140;5.602;2023-03-05T02:17:50;6.10;95.00
35593;DHT22;64447;52.140;5.602;2023-03-05T02:20:24;6.10;94.90
35593;DHT22;64447;52.140;5.602;2023-03-05T02:22:50;6.10;95.10
35593;DHT22;64447;52.140;5.602;2023-03-05T02:25:25;6.10;95.10
35593;DHT22;64447;52.140;5.602;2023-03-05T02:30:33;6.40;94.80
35593;DHT22;64447;52.140;5.602;2023-03-05T02:33:00;6.30;94.30
35593;DHT22;64447;52.140;5.602;2023-03-05T02:35:26;6.30;94.50
35593;DHT22;64447;52.140;5.602;2023-03-05T02:37:51;6.30;94.50
35593;DHT22;64447;52.140;5.602;2023-03-05T02:40:17;6.40;94.40
35593;DHT22;64447;52.140;5.602;2023-03-05T02:42:43;6.50;94.20
35593;DHT22;64447;52.140;5.602;2023-03-05T02:45:10;6.40;94.20
35593;DHT22;64447;52.140;5.602;2023-03-05T02:47:36;6.30;94.20
35593;DHT22;64447;52.140;5.602;2023-03-05T02:50:02;6.10;94.60
35593;DHT22;64447;52.140;5.602;2023-03-05T02:52:28;6.20;94.70
35593;DHT22;64447;52.140;5.602;2023-03-05T02:54:54;6.10;94.70
35593;DHT22;64447;52.140;5.602;2023-03-05T02:57:20;6.10;94.60
35593;DHT22;64447;52.140;5.602;2023-03-05T02:59:46;6.40;94.70
35593;DHT22;64447;52.140;5.602;2023-03-05T03:02:11;6.40;94.60
35593;DHT22;64447;52.140;5.602;2023-03-05T03:04:37;6.50;94.20
35593;DHT22;64447;52.140;5.602;2023-03-05T03:07:03;6.50;93.70
35593;DHT22;64447;52.140;5.602;2023-03-05T03:09:28;6.40;94.10
35593;DHT22;64447;52.140;5.602;2023-03-05T03:11:54;6.40;94.00
35593;DHT22;64447;52.140;5.602;2023-03-05T03:14:20;6.60;93.90
35593;DHT22;64447;52.140;5.602;2023-03-05T03:16:46;6.40;93.80
35593;DHT22;64447;52.140;5.602;2023-03-05T03:19:12;6.30;93.90
35593;DHT22;64447;52.140;5.602;2023-03-05T03:21:37;6.30;94.00
35593;DHT22;64447;52.140;5.602;2023-03-05T03:24:03;6.10;94.20
35593;DHT22;64447;52.140;5.602;2023-03-05T03:26:29;6.10;94.60
35593;DHT22;64447;52.140;5.602;2023-03-05T03:32:18;6.20;94.30
35593;DHT22;64447;52.140;5.602;2023-03-05T03:34:43;6.10;94.30
35593;DHT22;64447;52.140;5.602;2023-03-05T03:37:09;6.20;94.20
35593;DHT22;64447;52.140;5.602;2023-03-05T03:39:35;6.20;94.10
35593;DHT22;64447;52.140;5.602;2023-03-05T03:42:01;6.10;94.10
35593;DHT22;64447;52.140;5.602;2023-03-05T03:44:26;6.10;94.10
35593;DHT22;64447;52.140;5.602;2023-03-05T03:46:52;6.00;94.40
35593;DHT22;64447;52.140;5.602;2023-03-05T03:49:23;5.80;95.00
35593;DHT22;64447;52.140;5.602;2023-03-05T03:51:51;5.60;95.30
35593;DHT22;64447;52.140;5.602;2023-03-05T03:54:18;5.80;95.30
35593;DHT22;64447;52.140;5.602;2023-03-05T03:56:44;6.00;95.20
35593;DHT22;64447;52.140;5.602;2023-03-05T04:02:32;5.90;95.10
35593;DHT22;64447;52.140;5.602;2023-03-05T04:04:57;5.80;95.20
35593;DHT22;64447;52.140;5.602;2023-03-05T04:07:23;5.80;95.00
35593;DHT22;64447;52.140;5.602;2023-03-05T04:09:49;5.90;95.00
35593;DHT22;64447;52.140;5.602;2023-03-05T04:12:14;5.90;95.20
35593;DHT22;64447;52.140;5.602;2023-03-05T04:14:43;6.10;94.80
35593;DHT22;64447;52.140;5.602;2023-03-05T04:17:10;6.20;94.50
35593;DHT22;64447;52.140;5.602;2023-03-05T04:19:36;6.10;94.60
35593;DHT22;64447;52.140;5.602;2023-03-05T04:22:01;5.90;94.80
35593;DHT22;64447;52.140;5.602;2023-03-05T04:24:27;6.00;94.90
35593;DHT22;64447;52.140;5.602;2023-03-05T04:26:52;6.10;94.80
35593;DHT22;64447;52.140;5.602;2023-03-05T04:32:40;5.80;95.60
35593;DHT22;64447;52.140;5.602;2023-03-05T04:35:06;5.80;95.30
35593;DHT22;64447;52.140;5.602;2023-03-05T04:37:32;5.70;95.70
35593;DHT22;64447;52.140;5.602;2023-03-05T04:39:57;5.70;96.40
35593;DHT22;64447;52.140;5.602;2023-03-05T04:42:23;5.70;95.90
35593;DHT22;64447;52.140;5.602;2023-03-05T04:44:49;5.80;96.30
35593;DHT22;64447;52.140;5.602;2023-03-05T04:47:15;5.70;96.10
35593;DHT22;64447;52.140;5.602;2023-03-05T04:49:41;5.60;96.20
35593;DHT22;64447;52.140;5.602;2023-03-05T04:52:07;5.60;96.90
35593;DHT22;64447;52.140;5.602;2023-03-05T04:54:34;6.00;96.50
35593;DHT22;64447;52.140;5.602;2023-03-05T04:56:59;5.90;96.10
35593;DHT22;64447;52.140;5.602;2023-03-05T05:02:48;6.00;95.60
35593;DHT22;64447;52.140;5.602;2023-03-05T05:05:19;6.00;95.60
35593;DHT22;64447;52.140;5.602;2023-03-05T05:07:45;6.00;95.60
35593;DHT22;64447;52.140;5.602;2023-03-05T05:10:12;6.10;95.50
35593;DHT22;64447;52.140;5.602;2023-03-05T05:12:38;6.00;95.20
35593;DHT22;64447;52.140;5.602;2023-03-05T05:15:05;6.10;95.20
35593;DHT22;64447;52.140;5.602;2023-03-05T05:17:31;6.10;95.10
35593;DHT22;64447;52.140;5.602;2023-03-05T05:19:59;6.30;94.90
35593;DHT22;64447;52.140;5.602;2023-03-05T05:22:26;6.30;94.80
35593;DHT22;64447;52.140;5.602;2023-03-05T05:24:53;6.30;94.80
35593;DHT22;64447;52.140;5.602;2023-03-05T05:27:18;6.30;94.60
35593;DHT22;64447;52.140;5.602;2023-03-05T05:33:06;6.30;94.70
35593;DHT22;64447;52.140;5.602;2023-03-05T05:35:31;6.30;94.60
35593;DHT22;64447;52.140;5.602;2023-03-05T05:37:57;6.30;94.60
35593;DHT22;64447;52.140;5.602;2023-03-05T05:40:22;6.20;94.50
35593;DHT22;64447;52.140;5.602;2023-03-05T05:42:48;6.20;95.00
35593;DHT22;64447;52.140;5.602;2023-03-05T05:45:14;6.30;94.50
35593;DHT22;64447;52.140;5.602;2023-03-05T05:47:39;6.30;94.60
35593;DHT22;64447;52.140;5.602;2023-03-05T05:50:05;6.40;94.60
35593;DHT22;64447;52.140;5.602;2023-03-05T05:52:32;6.30;94.50
35593;DHT22;64447;52.140;5.602;2023-03-05T05:54:57;6.30;94.60
35593;DHT22;64447;52.140;5.602;2023-03-05T05:57:23;6.20;94.50
35593;DHT22;64447;52.140;5.602;2023-03-05T06:03:11;6.30;94.50
35593;DHT22;64447;52.140;5.602;2023-03-05T06:05:36;6.10;94.80
35593;DHT22;64447;52.140;5.602;2023-03-05T06:08:02;6.10;94.70
35593;DHT22;64447;52.140;5.602;2023-03-05T06:10:28;5.90;95.20
35593;DHT22;64447;52.140;5.602;2023-03-05T06:12:54;5.60;95.80
35593;DHT22;64447;52.140;5.602;2023-03-05T06:15:19;5.50;96.00
35593;DHT22;64447;52.140;5.602;2023-03-05T06:17:45;5.60;97.00
35593;DHT22;64447;52.140;5.602;2023-03-05T06:20:12;5.10;97.50
35593;DHT22;64447;52.140;5.602;2023-03-05T06:22:39;4.90;97.70
35593;DHT22;64447;52.140;5.602;2023-03-05T06:25:08;5.00;97.80
35593;DHT22;64447;52.140;5.602;2023-03-05T06:27:35;5.20;98.10
35593;DHT22;64447;52.140;5.602;2023-03-05T06:33:23;5.60;97.20
35593;DHT22;64447;52.140;5.602;2023-03-05T06:35:49;5.70;96.70
35593;DHT22;64447;52.140;5.602;2023-03-05T06:38:15;5.60;96.60
35593;DHT22;64447;52.140;5.602;2023-03-05T06:40:40;5.70;96.50
35593;DHT22;64447;52.140;5.602;2023-03-05T06:43:06;5.70;96.30
35593;DHT22;64447;52.140;5.602;2023-03-05T06:45:31;5.50;96.80
35593;DHT22;64447;52.140;5.602;2023-03-05T06:47:57;5.60;97.20
35593;DHT22;64447;52.140;5.602;2023-03-05T06:50:23;5.70;96.90
35593;DHT22;64447;52.140;5.602;2023-03-05T06:52:49;5.80;96.50
35593;DHT22;64447;52.140;5.602;2023-03-05T06:55:14;5.80;96.40
35593;DHT22;64447;52.140;5.602;2023-03-05T06:57:40;6.00;96.40
35593;DHT22;64447;52.140;5.602;2023-03-05T07:03:27;6.00;96.10
35593;DHT22;64447;52.140;5.602;2023-03-05T07:05:53;6.10;96.00
35593;DHT22;64447;52.140;5.602;2023-03-05T07:08:18;6.60;95.70
35593;DHT22;64447;52.140;5.602;2023-03-05T07:10:44;6.00;95.50
35593;DHT22;64447;52.140;5.602;2023-03-05T07:13:09;5.80;96.20
35593;DHT22;64447;52.140;5.602;2023-03-05T07:15:39;5.70;96.70
35593;DHT22;64447;52.140;5.602;2023-03-05T07:18:05;5.90;96.60
35593;DHT22;64447;52.140;5.602;2023-03-05T07:20:36;6.10;96.50
35593;DHT22;64447;52.140;5.602;2023-03-05T07:23:02;6.00;96.20
35593;DHT22;64447;52.140;5.602;2023-03-05T07:25:28;6.00;96.20
35593;DHT22;64447;52.140;5.602;2023-03-05T07:27:54;6.20;96.20
35593;DHT22;64447;52.140;5.602;2023-03-05T07:30:20;6.20;96.10
35593;DHT22;64447;52.140;5.602;2023-03-05T07:32:45;5.90;96.40
35593;DHT22;64447;52.140;5.602;2023-03-05T07:35:11;5.90;96.30
35593;DHT22;64447;52.140;5.602;2023-03-05T07:37:37;6.00;96.70
35593;DHT22;64447;52.140;5.602;2023-03-05T07:40:03;5.80;97.00
35593;DHT22;64447;52.140;5.602;2023-03-05T07:42:29;5.70;97.40
35593;DHT22;64447;52.140;5.602;2023-03-05T07:48:18;6.00;97.10
35593;DHT22;64447;52.140;5.602;2023-03-05T07:50:46;6.00;96.90
35593;DHT22;64447;52.140;5.602;2023-03-05T07:53:12;6.10;96.80
35593;DHT22;64447;52.140;5.602;2023-03-05T07:55:44;6.10;96.80
35593;DHT22;64447;52.140;5.602;2023-03-05T07:58:11;6.10;96.80
35593;DHT22;64447;52.140;5.602;2023-03-05T08:00:37;6.10;97.00
35593;DHT22;64447;52.140;5.602;2023-03-05T08:03:03;5.90;97.10
35593;DHT22;64447;52.140;5.602;2023-03-05T08:05:29;5.80;97.30
35593;DHT22;64447;52.140;5.602;2023-03-05T08:07:54;5.70;97.80
35593;DHT22;64447;52.140;5.602;2023-03-05T08:10:20;5.50;98.00
35593;DHT22;64447;52.140;5.602;2023-03-05T08:12:46;5.50;98.80
35593;DHT22;64447;52.140;5.602;2023-03-05T08:18:33;5.60;98.50
35593;DHT22;64447;52.140;5.602;2023-03-05T08:20:59;5.60;98.80
35593;DHT22;64447;52.140;5.602;2023-03-05T08:23:25;5.50;98.70
35593;DHT22;64447;52.140;5.602;2023-03-05T08:25:51;5.50;99.10
35593;DHT22;64447;52.140;5.602;2023-03-05T08:28:17;5.70;98.80
35593;DHT22;64447;52.140;5.602;2023-03-05T08:30:45;5.60;98.90
35593;DHT22;64447;52.140;5.602;2023-03-05T08:33:11;5.50;99.10
35593;DHT22;64447;52.140;5.602;2023-03-05T08:35:37;5.60;99.10
35593;DHT22;64447;52.140;5.602;2023-03-05T08:38:03;5.60;99.30
35593;DHT22;64447;52.140;5.602;2023-03-05T08:40:28;5.70;99.70
35593;DHT22;64447;52.140;5.602;2023-03-05T08:42:54;5.90;99.60
35593;DHT22;64447;52.140;5.602;2023-03-05T08:48:42;6.30;99.10
35593;DHT22;64447;52.140;5.602;2023-03-05T08:51:10;6.40;98.30
35593;DHT22;64447;52.140;5.602;2023-03-05T08:53:37;6.70;97.90
35593;DHT22;64447;52.140;5.602;2023-03-05T08:56:02;6.60;97.50
35593;DHT22;64447;52.140;5.602;2023-03-05T08:58:28;6.50;97.00
35593;DHT22;64447;52.140;5.602;2023-03-05T09:00:54;6.60;97.00
35593;DHT22;64447;52.140;5.602;2023-03-05T09:03:20;6.60;96.80
35593;DHT22;64447;52.140;5.602;2023-03-05T09:05:46;6.20;97.70
35593;DHT22;64447;52.140;5.602;2023-03-05T09:08:12;6.10;97.90
35593;DHT22;64447;52.140;5.602;2023-03-05T09:10:40;6.10;97.80
35593;DHT22;64447;52.140;5.602;2023-03-05T09:13:07;6.20;97.60
35593;DHT22;64447;52.140;5.602;2023-03-05T09:18:54;6.40;97.10
35593;DHT22;64447;52.140;5.602;2023-03-05T09:21:20;6.30;97.20
35593;DHT22;64447;52.140;5.602;2023-03-05T09:23:45;6.40;97.00
35593;DHT22;64447;52.140;5.602;2023-03-05T09:26:12;6.70;97.40
35593;DHT22;64447;52.140;5.602;2023-03-05T09:28:39;6.40;97.00
35593;DHT22;64447;52.140;5.602;2023-03-05T09:31:05;6.20;96.90
35593;DHT22;64447;52.140;5.602;2023-03-05T09:33:32;6.20;96.60
35593;DHT22;64447;52.140;5.602;2023-03-05T09:35:59;6.30;96.70
35593;DHT22;64447;52.140;5.602;2023-03-05T09:38:26;6.20;96.60
35593;DHT22;64447;52.140;5.602;2023-03-05T09:41:03;6.10;96.50
35593;DHT22;64447;52.140;5.602;2023-03-05T09:47:14;6.20;96.40
35593;DHT22;64447;52.140;5.602;2023-03-05T09:50:48;6.00;96.50
35593;DHT22;64447;52.140;5.602;2023-03-05T09:52:53;6.10;96.90
35593;DHT22;64447;52.140;5.602;2023-03-05T09:55:39;6.00;96.60
35593;DHT22;64447;52.140;5.602;2023-03-05T10:04:22;6.00;97.10
35593;DHT22;64447;52.140;5.602;2023-03-05T10:09:44;6.20;95.80
35593;DHT22;64447;52.140;5.602;2023-03-05T10:21:19;6.40;94.80
35593;DHT22;64447;52.140;5.602;2023-03-05T10:23:59;6.40;94.60
35593;DHT22;64447;52.140;5.602;2023-03-05T10:26:49;6.30;94.80
35593;DHT22;64447;52.140;5.602;2023-03-05T10:35:10;6.50;94.40
35593;DHT22;64447;52.140;5.602;2023-03-05T10:45:47;6.60;93.60
35593;DHT22;64447;52.140;5.602;2023-03-05T10:48:33;6.60;93.10
35593;DHT22;64447;52.140;5.602;2023-03-05T10:56:45;7.00;92.50
35593;DHT22;64447;52.140;5.602;2023-03-05T11:03:02;7.30;90.60
35593;DHT22;64447;52.140;5.602;2023-03-05T11:08:26;7.30;91.10
35593;DHT22;64447;52.140;5.602;2023-03-05T11:11:17;7.40;90.50
35593;DHT22;64447;52.140;5.602;2023-03-05T11:13:49;7.40;90.50
35593;DHT22;64447;52.140;5.602;2023-03-05T11:26:00;7.40;90.00
35593;DHT22;64447;52.140;5.602;2023-03-05T11:36:29;7.10;86.60
35593;DHT22;64447;52.140;5.602;2023-03-05T11:39:16;7.10;86.80
35593;DHT22;64447;52.140;5.602;2023-03-05T11:41:49;7.30;88.80
35593;DHT22;64447;52.140;5.602;2023-03-05T11:47:57;7.40;84.90
35593;DHT22;64447;52.140;5.602;2023-03-05T11:50:32;7.30;85.00
35593;DHT22;64447;52.140;5.602;2023-03-05T11:53:04;7.50;82.80
35593;DHT22;64447;52.140;5.602;2023-03-05T11:55:40;7.50;82.40
35593;DHT22;64447;52.140;5.602;2023-03-05T11:58:38;7.40;83.80
35593;DHT22;64447;52.140;5.602;2023-03-05T12:01:14;7.40;84.00
35593;DHT22;64447;52.140;5.602;2023-03-05T12:03:41;7.50;83.00
35593;DHT22;64447;52.140;5.602;2023-03-05T12:06:17;7.50;82.80
35593;DHT22;64447;52.140;5.602;2023-03-05T12:08:48;7.70;82.10
35593;DHT22;64447;52.140;5.602;2023-03-05T12:11:23;7.40;82.30
35593;DHT22;64447;52.140;5.602;2023-03-05T12:16:36;7.40;83.80
35593;DHT22;64447;52.140;5.602;2023-03-05T12:21:51;7.50;82.20
35593;DHT22;64447;52.140;5.602;2023-03-05T12:35:38;7.50;81.20
35593;DHT22;64447;52.140;5.602;2023-03-05T12:38:27;7.50;80.00
35593;DHT22;64447;52.140;5.602;2023-03-05T12:43:45;7.60;79.30
35593;DHT22;64447;52.140;5.602;2023-03-05T12:49:52;7.40;79.90
35593;DHT22;64447;52.140;5.602;2023-03-05T12:52:24;7.30;79.80
35593;DHT22;64447;52.140;5.602;2023-03-05T12:55:17;7.70;78.80
35593;DHT22;64447;52.140;5.602;2023-03-05T12:57:46;7.50;79.40
35593;DHT22;64447;52.140;5.602;2023-03-05T13:00:20;7.60;76.10
35593;DHT22;64447;52.140;5.602;2023-03-05T13:02:51;7.50;75.80
35593;DHT22;64447;52.140;5.602;2023-03-05T13:07:49;8.00;75.70
35593;DHT22;64447;52.140;5.602;2023-03-05T13:10:41;8.20;72.70
35593;DHT22;64447;52.140;5.602;2023-03-05T13:13:12;8.00;73.00
35593;DHT22;64447;52.140;5.602;2023-03-05T13:15:39;7.80;74.30
35593;DHT22;64447;52.140;5.602;2023-03-05T13:18:04;7.90;76.20
35593;DHT22;64447;52.140;5.602;2023-03-05T13:20:38;7.90;74.30
35593;DHT22;64447;52.140;5.602;2023-03-05T13:23:14;7.80;74.30
35593;DHT22;64447;52.140;5.602;2023-03-05T13:25:44;7.60;75.80
35593;DHT22;64447;52.140;5.602;2023-03-05T13:28:15;7.70;75.90
35593;DHT22;64447;52.140;5.602;2023-03-05T13:31:14;7.90;75.70
35593;DHT22;64447;52.140;5.602;2023-03-05T13:33:49;7.60;74.90
35593;DHT22;64447;52.140;5.602;2023-03-05T13:36:18;7.80;74.80
35593;DHT22;64447;52.140;5.602;2023-03-05T13:38:45;7.70;75.10
35593;DHT22;64447;52.140;5.602;2023-03-05T13:44:16;7.70;76.10
35593;DHT22;64447;52.140;5.602;2023-03-05T13:46:44;8.10;77.00
35593;DHT22;64447;52.140;5.602;2023-03-05T13:49:26;7.80;76.20
35593;DHT22;64447;52.140;5.602;2023-03-05T13:51:54;7.90;73.70
35593;DHT22;64447;52.140;5.602;2023-03-05T13:54:22;7.80;73.00
35593;DHT22;64447;52.140;5.602;2023-03-05T13:56:54;8.00;74.50
35593;DHT22;64447;52.140;5.602;2023-03-05T13:59:22;7.90;73.10
35593;DHT22;64447;52.140;5.602;2023-03-05T14:01:48;7.70;74.50
35593;DHT22;64447;52.140;5.602;2023-03-05T14:04:17;7.60;73.10
35593;DHT22;64447;52.140;5.602;2023-03-05T14:06:59;7.50;74.50
35593;DHT22;64447;52.140;5.602;2023-03-05T14:09:46;7.40;74.20
35593;DHT22;64447;52.140;5.602;2023-03-05T14:14:47;7.50;75.10
35593;DHT22;64447;52.140;5.602;2023-03-05T14:17:37;7.50;75.90
35593;DHT22;64447;52.140;5.602;2023-03-05T14:22:49;7.30;76.10
35593;DHT22;64447;52.140;5.602;2023-03-05T14:25:37;7.50;75.80
35593;DHT22;64447;52.140;5.602;2023-03-05T14:34:05;7.90;75.30
35593;DHT22;64447;52.140;5.602;2023-03-05T14:36:31;7.80;74.90
35593;DHT22;64447;52.140;5.602;2023-03-05T14:38:58;7.50;75.30
35593;DHT22;64447;52.140;5.602;2023-03-05T14:41:41;7.90;75.60
35593;DHT22;64447;52.140;5.602;2023-03-05T14:44:15;7.70;75.50
35593;DHT22;64447;52.140;5.602;2023-03-05T14:50:04;7.50;76.10
35593;DHT22;64447;52.140;5.602;2023-03-05T14:52:30;7.70;76.90
35593;DHT22;64447;52.140;5.602;2023-03-05T14:54:56;7.90;75.10
35593;DHT22;64447;52.140;5.602;2023-03-05T14:57:25;8.10;74.50
35593;DHT22;64447;52.140;5.602;2023-03-05T14:59:52;8.80;74.50
35593;DHT22;64447;52.140;5.602;2023-03-05T15:05:43;8.10;73.00
35593;DHT22;64447;52.140;5.602;2023-03-05T15:08:14;7.90;75.10
35593;DHT22;64447;52.140;5.602;2023-03-05T15:10:41;7.50;76.20
35593;DHT22;64447;52.140;5.602;2023-03-05T15:13:07;7.30;78.60
35593;DHT22;64447;52.140;5.602;2023-03-05T15:15:33;7.10;79.40
35593;DHT22;64447;52.140;5.602;2023-03-05T15:17:58;7.00;80.50
35593;DHT22;64447;52.140;5.602;2023-03-05T15:20:27;6.90;81.30
35593;DHT22;64447;52.140;5.602;2023-03-05T15:22:52;6.90;81.70
35593;DHT22;64447;52.140;5.602;2023-03-05T15:25:20;7.00;82.10
35593;DHT22;64447;52.140;5.602;2023-03-05T15:27:46;6.90;82.40
35593;DHT22;64447;52.140;5.602;2023-03-05T15:36:58;6.80;84.90
35593;DHT22;64447;52.140;5.602;2023-03-05T15:39:24;6.80;85.90
35593;DHT22;64447;52.140;5.602;2023-03-05T15:41:50;6.80;86.10
35593;DHT22;64447;52.140;5.602;2023-03-05T15:44:16;7.00;86.20
35593;DHT22;64447;52.140;5.602;2023-03-05T15:46:42;6.90;86.40
35593;DHT22;64447;52.140;5.602;2023-03-05T15:49:07;6.90;86.90
35593;DHT22;64447;52.140;5.602;2023-03-05T15:51:33;7.00;86.20
35593;DHT22;64447;52.140;5.602;2023-03-05T15:53:58;7.20;86.50
35593;DHT22;64447;52.140;5.602;2023-03-05T15:56:24;7.10;86.60
35593;DHT22;64447;52.140;5.602;2023-03-05T15:58:50;7.00;86.00
35593;DHT22;64447;52.140;5.602;2023-03-05T16:01:16;6.80;86.80
35593;DHT22;64447;52.140;5.602;2023-03-05T16:03:44;6.70;88.20
35593;DHT22;64447;52.140;5.602;2023-03-05T16:06:10;6.70;88.00
35593;DHT22;64447;52.140;5.602;2023-03-05T16:08:37;6.60;88.30
35593;DHT22;64447;52.140;5.602;2023-03-05T16:11:04;6.50;89.00
35593;DHT22;64447;52.140;5.602;2023-03-05T16:13:30;6.50;90.10
35593;DHT22;64447;52.140;5.602;2023-03-05T16:15:57;6.70;88.30
35593;DHT22;64447;52.140;5.602;2023-03-05T16:18:23;6.60;89.00
35593;DHT22;64447;52.140;5.602;2023-03-05T16:20:50;6.70;88.90
35593;DHT22;64447;52.140;5.602;2023-03-05T16:23:16;6.80;88.10
35593;DHT22;64447;52.140;5.602;2023-03-05T16:25:41;7.00;88.80
35593;DHT22;64447;52.140;5.602;2023-03-05T16:28:07;6.60;88.80
35593;DHT22;64447;52.140;5.602;2023-03-05T16:30:34;6.60;89.10
35593;DHT22;64447;52.140;5.602;2023-03-05T16:33:00;6.80;88.80
35593;DHT22;64447;52.140;5.602;2023-03-05T16:35:26;6.70;89.20
35593;DHT22;64447;52.140;5.602;2023-03-05T16:37:51;6.80;89.40
35593;DHT22;64447;52.140;5.602;2023-03-05T16:40:17;6.70;89.20
35593;DHT22;64447;52.140;5.602;2023-03-05T16:42:43;6.80;89.20
35593;DHT22;64447;52.140;5.602;2023-03-05T16:45:10;6.70;89.40
35593;DHT22;64447;52.140;5.602;2023-03-05T16:50:58;6.90;89.80
35593;DHT22;64447;52.140;5.602;2023-03-05T16:53:24;7.10;88.30
35593;DHT22;64447;52.140;5.602;2023-03-05T16:55:50;7.10;88.90
35593;DHT22;64447;52.140;5.602;2023-03-05T16:58:15;7.20;87.70
35593;DHT22;64447;52.140;5.602;2023-03-05T17:00:41;7.30;87.80
35593;DHT22;64447;52.140;5.602;2023-03-05T17:03:06;7.30;87.50
35593;DHT22;64447;52.140;5.602;2023-03-05T17:05:36;7.40;87.00
35593;DHT22;64447;52.140;5.602;2023-03-05T17:08:02;7.80;85.80
35593;DHT22;64447;52.140;5.602;2023-03-05T17:10:29;7.30;86.20
35593;DHT22;64447;52.140;5.602;2023-03-05T17:12:55;7.20;87.00
35593;DHT22;64447;52.140;5.602;2023-03-05T17:15:22;7.10;87.20
35593;DHT22;64447;52.140;5.602;2023-03-05T17:21:10;7.30;86.10
35593;DHT22;64447;52.140;5.602;2023-03-05T17:23:37;7.90;86.60
35593;DHT22;64447;52.140;5.602;2023-03-05T17:26:05;7.40;87.80
35593;DHT22;64447;52.140;5.602;2023-03-05T17:28:31;7.30;88.90
35593;DHT22;64447;52.140;5.602;2023-03-05T17:30:57;7.50;89.70
35593;DHT22;64447;52.140;5.602;2023-03-05T17:33:29;7.40;89.20
35593;DHT22;64447;52.140;5.602;2023-03-05T17:35:54;7.30;90.40
35593;DHT22;64447;52.140;5.602;2023-03-05T17:38:20;7.30;88.70
35593;DHT22;64447;52.140;5.602;2023-03-05T17:40:47;7.20;88.50
35593;DHT22;64447;52.140;5.602;2023-03-05T17:43:13;7.30;90.00
35593;DHT22;64447;52.140;5.602;2023-03-05T17:45:38;7.30;89.10
35593;DHT22;64447;52.140;5.602;2023-03-05T17:51:26;6.80;90.80
35593;DHT22;64447;52.140;5.602;2023-03-05T17:53:52;6.50;90.10
35593;DHT22;64447;52.140;5.602;2023-03-05T17:56:18;6.50;91.40
35593;DHT22;64447;52.140;5.602;2023-03-05T17:58:47;6.30;91.00
35593;DHT22;64447;52.140;5.602;2023-03-05T18:01:25;7.00;91.20
35593;DHT22;64447;52.140;5.602;2023-03-05T18:03:51;5.90;91.90
35593;DHT22;64447;52.140;5.602;2023-03-05T18:06:16;5.90;92.00
35593;DHT22;64447;52.140;5.602;2023-03-05T18:08:42;5.80;91.90
35593;DHT22;64447;52.140;5.602;2023-03-05T18:11:08;5.90;91.70
35593;DHT22;64447;52.140;5.602;2023-03-05T18:13:33;6.30;91.60
35593;DHT22;64447;52.140;5.602;2023-03-05T18:15:59;5.90;91.50
35593;DHT22;64447;52.140;5.602;2023-03-05T18:21:47;6.40;91.10
35593;DHT22;64447;52.140;5.602;2023-03-05T18:24:14;6.30;91.00
35593;DHT22;64447;52.140;5.602;2023-03-05T18:26:39;6.50;90.50
35593;DHT22;64447;52.140;5.602;2023-03-05T18:29:05;6.50;90.60
35593;DHT22;64447;52.140;5.602;2023-03-05T18:31:30;6.50;90.10
35593;DHT22;64447;52.140;5.602;2023-03-05T18:33:56;6.20;90.40
35593;DHT22;64447;52.140;5.602;2023-03-05T18:36:24;6.10;90.10
35593;DHT22;64447;52.140;5.602;2023-03-05T18:38:50;6.50;90.60
35593;DHT22;64447;52.140;5.602;2023-03-05T18:41:21;6.50;89.90
35593;DHT22;64447;52.140;5.602;2023-03-05T18:43:47;6.80;89.80
35593;DHT22;64447;52.140;5.602;2023-03-05T18:46:13;6.80;89.20
35593;DHT22;64447;52.140;5.602;2023-03-05T18:52:01;6.90;88.30
35593;DHT22;64447;52.140;5.602;2023-03-05T18:54:27;6.80;87.00
35593;DHT22;64447;52.140;5.602;2023-03-05T18:56:53;6.80;88.60
35593;DHT22;64447;52.140;5.602;2023-03-05T18:59:18;6.80;89.80
35593;DHT22;64447;52.140;5.602;2023-03-05T19:01:44;6.90;89.10
35593;DHT22;64447;52.140;5.602;2023-03-05T19:04:09;7.10;89.20